Time;durP1;ratioP1;P1;durP2;ratioP2;P2;SDS_P1;SDS_P2;PMS_P1;PMS_P2;Temp;Humidity;BMP_temperature;BMP_pressure;BME280_temperature;BME280_humidity;BME280_pressure;Samples;Min_cycle;Max_cycle;Signal;HPM_P1;HPM_P2
2023/01/09 00:01:29;;;;;;;5.47;1.30;;;;;;;7.71;100.00;99017.53;5053267;28;20064;-52
2023/01/09 00:03:56;;;;;;;3.28;1.20;;;;;;;7.67;100.00;99003.06;5048196;28;20433;-52
2023/01/09 00:06:23;;;;;;;2.80;1.00;;;;;;;7.58;100.00;99007.59;5055898;28;20442;-51
2023/01/09 00:08:49;;;;;;;5.97;1.20;;;;;;;7.46;100.00;99009.03;5052122;28;20056;-52
2023/01/09 00:11:16;;;;;;;4.82;1.10;;;;;;;7.45;100.00;99007.38;5039546;28;20118;-51
2023/01/09 00:13:45;;;;;;;2.90;1.00;;;;;;;7.34;100.00;99007.78;5051895;28;20067;-52
2023/01/09 00:16:13;;;;;;;3.40;1.10;;;;;;;7.32;100.00;99012.41;5056970;28;20051;-51
2023/01/09 00:18:40;;;;;;;5.65;0.93;;;;;;;7.22;100.00;99017.91;5051819;28;20057;-52
2023/01/09 00:21:09;;;;;;;3.20;0.80;;;;;;;7.05;100.00;99011.91;5056845;28;20045;-51
2023/01/09 00:23:36;;;;;;;2.80;0.80;;;;;;;7.08;100.00;99008.94;5052289;28;20410;-51
2023/01/09 00:26:07;;;;;;;2.17;0.70;;;;;;;6.89;100.00;99010.16;5038930;28;20067;-52
2023/01/09 00:28:34;;;;;;;1.13;0.80;;;;;;;6.95;100.00;99016.56;5051947;28;20132;-51
2023/01/09 00:31:03;;;;;;;3.13;0.82;;;;;;;6.87;100.00;99012.97;5056821;28;20087;-55
2023/01/09 00:33:53;;;;;;;0.93;0.73;;;;;;;6.89;100.00;99013.66;5048495;28;20051;-53
2023/01/09 00:36:20;;;;;;;1.45;0.90;;;;;;;6.92;100.00;99012.47;5056753;28;20098;-53
2023/01/09 00:38:48;;;;;;;4.90;1.00;;;;;;;6.94;100.00;99007.03;5051684;28;20049;-53
2023/01/09 00:41:19;;;;;;;2.78;1.15;;;;;;;6.90;100.00;99017.91;5056500;28;20037;-52
2023/01/09 00:43:50;;;;;;;1.88;0.82;;;;;;;7.01;100.00;99019.34;5051260;28;20048;-52
2023/01/09 00:46:20;;;;;;;2.47;1.10;;;;;;;7.10;100.00;99028.03;5056209;28;20398;-52
2023/01/09 00:48:48;;;;;;;1.17;0.90;;;;;;;7.10;100.00;99030.66;5051463;28;20128;-51
2023/01/09 00:51:17;;;;;;;4.78;1.02;;;;;;;6.95;100.00;99024.47;5056237;28;20048;-54
2023/01/09 00:53:44;;;;;;;2.28;0.80;;;;;;;6.97;100.00;99039.16;5051592;28;20049;-53
2023/01/09 00:56:15;;;;;;;3.20;0.90;;;;;;;6.89;100.00;99044.44;5056106;28;20049;-49
2023/01/09 00:58:42;;;;;;;2.80;1.20;;;;;;;6.88;100.00;99040.19;5051585;28;20494;-50
2023/01/09 01:01:09;;;;;;;3.25;1.05;;;;;;;6.91;100.00;99038.03;5055827;28;20089;-52
2023/01/09 01:03:36;;;;;;;3.03;1.00;;;;;;;6.78;100.00;99044.81;5051593;28;20274;-49
2023/01/09 01:08:49;;;;;;;2.03;1.00;;;;;;;6.76;100.00;99045.00;5050646;28;20120;-51
2023/01/09 01:11:16;;;;;;;2.47;1.10;;;;;;;6.74;100.00;99044.34;5055753;28;20053;-52
2023/01/09 01:13:42;;;;;;;3.00;1.13;;;;;;;6.78;100.00;99048.28;5051377;28;20055;-49
2023/01/09 01:16:11;;;;;;;4.25;1.20;;;;;;;6.74;100.00;99049.63;5042845;28;20487;-49
2023/01/09 01:18:39;;;;;;;3.28;1.30;;;;;;;6.72;100.00;99057.69;5030359;28;20068;-50
2023/01/09 01:21:08;;;;;;;2.60;1.10;;;;;;;6.79;100.00;99063.09;5036153;28;20045;-49
2023/01/09 01:23:35;;;;;;;3.13;1.15;;;;;;;6.78;100.00;99072.00;5030960;28;20057;-48
2023/01/09 01:26:05;;;;;;;3.10;1.30;;;;;;;6.75;100.00;99072.34;5035713;28;20045;-52
2023/01/09 01:28:32;;;;;;;2.90;1.00;;;;;;;6.75;100.00;99076.78;5030771;28;20347;-51
2023/01/09 01:30:59;;;;;;;2.42;1.20;;;;;;;6.77;100.00;99070.38;5035592;28;20099;-52
2023/01/09 01:33:26;;;;;;;2.95;1.23;;;;;;;6.80;100.00;99062.09;5030788;28;20322;-52
2023/01/09 01:36:04;;;;;;;4.75;1.20;;;;;;;6.81;100.00;99060.31;5031752;28;20407;-53
2023/01/09 01:38:32;;;;;;;1.92;1.10;;;;;;;6.81;100.00;99068.22;5035510;28;20057;-53
2023/01/09 01:41:01;;;;;;;4.05;1.20;;;;;;;6.88;100.00;99061.28;5030883;28;20056;-51
2023/01/09 01:43:48;;;;;;;3.10;1.17;;;;;;;6.92;100.00;99066.00;5036642;28;20057;-52
2023/01/09 01:46:17;;;;;;;1.98;1.13;;;;;;;6.94;100.00;99071.13;5050556;28;20045;-52
2023/01/09 01:48:46;;;;;;;2.30;1.10;;;;;;;6.92;100.00;99070.47;5054939;28;20132;-51
2023/01/09 01:51:17;;;;;;;2.45;1.00;;;;;;;6.98;100.00;99074.22;5050656;28;20132;-50
2023/01/09 01:53:48;;;;;;;5.57;1.17;;;;;;;6.89;100.00;99074.28;5055135;28;20052;-52
2023/01/09 01:56:23;;;;;;;1.77;0.85;;;;;;;6.92;100.00;99081.00;5050720;28;20475;-52
2023/01/09 02:01:29;;;;;;;2.33;1.00;;;;;;;7.02;100.00;99086.06;5127254;27;20390;-54
2023/01/09 02:04:00;;;;;;;2.38;0.98;;;;;;;6.99;100.00;99094.34;5110609;28;20040;-53
2023/01/09 02:06:29;;;;;;;4.18;1.00;;;;;;;7.01;100.00;99090.53;5106266;28;20040;-52
2023/01/09 02:08:56;;;;;;;4.28;0.90;;;;;;;7.05;100.00;99096.28;5110136;28;20070;-52
2023/01/09 02:11:23;;;;;;;4.78;1.25;;;;;;;7.04;100.00;99108.66;5106406;28;20032;-52
2023/01/09 02:13:51;;;;;;;3.17;1.20;;;;;;;7.01;100.00;99101.06;5106210;28;20106;-52
2023/01/09 02:19:56;;;;;;;4.05;1.08;;;;;;;7.14;100.00;99105.81;5110912;27;20354;-54
2023/01/09 02:22:39;;;;;;;1.73;0.90;;;;;;;7.10;99.31;99109.78;5111079;28;20093;-53
2023/01/09 02:25:45;;;;;;;3.67;1.10;;;;;;;7.08;98.89;99101.22;5106496;28;20048;-53
2023/01/09 02:28:43;;;;;;;4.55;1.10;;;;;;;6.89;100.00;99098.00;5110779;28;20120;-53
2023/01/09 02:31:18;;;;;;;5.32;1.30;;;;;;;6.74;100.00;99091.78;5106289;28;20052;-53
2023/01/09 02:34:04;;;;;;;2.10;1.20;;;;;;;6.79;100.00;99092.09;5110841;28;20052;-51
2023/01/09 02:36:58;;;;;;;2.28;1.00;;;;;;;6.80;100.00;99096.34;5103142;28;20044;-53
2023/01/09 02:39:50;;;;;;;4.28;1.25;;;;;;;6.86;100.00;99108.88;5110750;28;20442;-52
2023/01/09 02:42:21;;;;;;;4.20;1.35;;;;;;;6.89;100.00;99113.81;5106187;28;20047;-53
2023/01/09 02:44:49;;;;;;;3.75;1.30;;;;;;;6.94;100.00;99115.94;5110842;28;20075;-53
2023/01/09 02:49:55;;;;;;;4.55;1.70;;;;;;;6.79;99.69;99117.66;5110936;27;20036;-53
2023/01/09 02:53:02;;;;;;;4.85;1.65;;;;;;;6.89;99.41;99112.97;5106691;28;20075;-54
2023/01/09 02:55:55;;;;;;;6.07;2.10;;;;;;;6.95;99.52;99103.56;5110658;28;20394;-53
2023/01/09 02:58:50;;;;;;;4.25;1.60;;;;;;;6.88;98.12;99114.81;5110174;28;20119;-53
2023/01/09 03:01:36;;;;;;;4.05;1.63;;;;;;;6.80;98.04;99116.63;5106260;28;20397;-53
2023/01/09 03:04:43;;;;;;;8.43;1.73;;;;;;;6.79;98.08;99113.19;5110937;28;20036;-53
2023/01/09 03:07:25;;;;;;;4.97;1.63;;;;;;;6.69;97.99;99108.13;5105297;28;20489;-50
2023/01/09 03:09:59;;;;;;;7.75;2.00;;;;;;;6.65;98.76;99122.59;5110728;28;20400;-52
2023/01/09 03:12:30;;;;;;;8.00;1.80;;;;;;;6.74;99.26;99126.03;5106498;28;20062;-53
2023/01/09 03:15:00;;;;;;;7.50;2.00;;;;;;;6.77;99.18;99127.50;5110896;28;20048;-49
2023/01/09 03:17:34;;;;;;;4.78;1.80;;;;;;;6.67;98.81;99128.50;5089786;28;20040;-50
2023/01/09 03:20:06;;;;;;;6.32;1.90;;;;;;;6.65;97.61;99133.13;5089126;28;20123;-52
2023/01/09 03:22:33;;;;;;;4.90;1.98;;;;;;;6.62;99.54;99125.59;5085599;28;20494;-52
2023/01/09 03:24:59;;;;;;;6.35;1.80;;;;;;;6.61;97.09;99134.47;5090316;28;20397;-50
2023/01/09 03:27:26;;;;;;;6.35;2.00;;;;;;;6.78;97.85;99140.53;5085700;28;20044;-52
2023/01/09 03:29:55;;;;;;;7.55;2.00;;;;;;;6.81;97.63;99142.81;5089999;28;20052;-51
2023/01/09 03:32:22;;;;;;;7.13;2.20;;;;;;;6.73;96.49;99151.59;5085600;28;20040;-52
2023/01/09 03:34:48;;;;;;;7.55;1.80;;;;;;;6.72;96.66;99149.91;5088593;28;20044;-51
2023/01/09 03:37:15;;;;;;;8.57;1.83;;;;;;;6.72;96.33;99149.91;5082045;28;20048;-52
2023/01/09 03:39:42;;;;;;;12.20;2.10;;;;;;;6.61;96.04;99138.94;5089967;28;20097;-51
2023/01/09 03:42:09;;;;;;;10.90;2.20;;;;;;;6.60;95.33;99155.72;5090149;28;20121;-52
2023/01/09 03:44:35;;;;;;;9.35;2.10;;;;;;;6.65;95.73;99156.03;5096188;28;20077;-50
2023/01/09 03:47:02;;;;;;;7.80;2.10;;;;;;;6.57;95.51;99153.41;5109833;28;20047;-53
2023/01/09 03:49:29;;;;;;;9.02;2.05;;;;;;;6.60;96.85;99142.53;5105296;28;20382;-52
2023/01/09 03:51:55;;;;;;;9.05;2.10;;;;;;;6.48;95.85;99145.53;5110171;28;20051;-52
2023/01/09 03:54:22;;;;;;;6.00;1.90;;;;;;;6.38;95.20;99146.69;5105333;28;20040;-51
2023/01/09 03:56:49;;;;;;;7.35;2.10;;;;;;;6.40;95.91;99148.16;5109894;28;20589;-50
2023/01/09 03:59:16;;;;;;;8.32;1.98;;;;;;;6.33;95.61;99147.16;5103206;28;20040;-52
2023/01/09 04:01:42;;;;;;;10.38;2.72;;;;;;;6.32;95.37;99153.44;5096405;28;20072;-50
2023/01/09 04:04:09;;;;;;;6.88;2.00;;;;;;;6.23;96.31;99146.53;5091479;28;20040;-53
2023/01/09 04:06:36;;;;;;;6.60;1.70;;;;;;;6.14;96.07;99148.34;5095656;28;20428;-52
2023/01/09 04:09:03;;;;;;;6.85;1.88;;;;;;;6.08;96.64;99149.81;5090920;28;20047;-53
2023/01/09 04:11:29;;;;;;;9.02;2.08;;;;;;;6.09;96.77;99153.25;5096411;28;20435;-52
2023/01/09 04:13:56;;;;;;;7.25;2.10;;;;;;;5.98;97.13;99145.69;5078287;28;20399;-53
2023/01/09 04:16:22;;;;;;;9.38;2.28;;;;;;;5.96;97.01;99153.75;5096264;28;20055;-52
2023/01/09 04:18:49;;;;;;;6.20;2.05;;;;;;;6.04;96.78;99153.78;5090296;28;20040;-52
2023/01/09 04:21:16;;;;;;;9.57;2.25;;;;;;;6.03;95.81;99161.81;5095329;28;20052;-52
2023/01/09 04:23:44;;;;;;;9.50;1.77;;;;;;;6.02;95.65;99155.75;5091459;28;20093;-53
2023/01/09 04:26:10;;;;;;;9.80;2.15;;;;;;;5.90;97.02;99157.00;5095993;28;20071;-52
2023/01/09 04:28:37;;;;;;;8.05;1.90;;;;;;;5.87;96.60;99168.66;5091063;28;20090;-51
2023/01/09 04:31:04;;;;;;;7.15;2.00;;;;;;;5.86;96.19;99166.22;5095892;28;20400;-52
2023/01/09 04:33:30;;;;;;;9.02;1.88;;;;;;;5.80;95.95;99165.03;5090932;28;20097;-52
2023/01/09 04:35:57;;;;;;;8.23;2.17;;;;;;;5.76;96.61;99161.91;5095697;28;20130;-51
2023/01/09 04:38:25;;;;;;;10.35;2.90;;;;;;;5.87;95.55;99170.47;5087434;28;20044;-52
2023/01/09 04:40:53;;;;;;;12.30;2.33;;;;;;;5.72;95.38;99175.56;5095894;28;20097;-52
2023/01/09 04:43:20;;;;;;;12.05;2.00;;;;;;;5.80;94.14;99178.19;5093846;28;20439;-52
2023/01/09 04:45:46;;;;;;;8.80;2.03;;;;;;;5.74;95.71;99177.03;5093165;28;20485;-51
2023/01/09 04:48:13;;;;;;;9.13;1.95;;;;;;;5.77;94.07;99189.88;5093185;28;20079;-50
2023/01/09 04:50:40;;;;;;;7.70;1.70;;;;;;;5.79;93.58;99187.09;5091968;28;20115;-51
2023/01/09 04:53:06;;;;;;;14.93;2.08;;;;;;;5.74;93.61;99190.19;5095442;28;20047;-51
2023/01/09 04:55:34;;;;;;;7.97;1.60;;;;;;;5.81;93.09;99192.19;5090427;28;20378;-52
2023/01/09 04:58:00;;;;;;;6.05;1.60;;;;;;;5.82;91.79;99188.56;5095376;28;20439;-52
2023/01/09 05:00:27;;;;;;;5.47;1.60;;;;;;;5.80;92.65;99201.06;5090548;28;20071;-52
2023/01/09 05:02:54;;;;;;;9.13;1.60;;;;;;;5.86;92.00;99197.81;5095079;28;20452;-52
2023/01/09 05:05:20;;;;;;;8.43;1.77;;;;;;;5.90;92.38;99202.56;5088719;28;20048;-51
2023/01/09 05:07:47;;;;;;;11.95;2.05;;;;;;;5.93;92.18;99204.88;5094294;28;20093;-50
2023/01/09 05:10:14;;;;;;;20.10;1.95;;;;;;;5.95;91.45;99212.63;5090360;28;20044;-50
2023/01/09 05:12:41;;;;;;;10.15;1.95;;;;;;;5.93;92.68;99206.69;5094024;28;20102;-55
2023/01/09 05:15:09;;;;;;;6.05;1.60;;;;;;;6.00;91.55;99210.34;5090052;28;20127;-51
2023/01/09 05:17:36;;;;;;;11.32;1.90;;;;;;;6.11;91.52;99217.94;5094522;28;20047;-52
2023/01/09 05:20:03;;;;;;;13.02;1.80;;;;;;;6.11;91.63;99215.31;5090197;28;20094;-51
2023/01/09 05:22:29;;;;;;;7.25;1.67;;;;;;;6.13;91.70;99217.75;5094784;28;20048;-50
2023/01/09 05:24:57;;;;;;;8.77;2.45;;;;;;;6.13;91.14;99217.75;5089886;28;20128;-52
2023/01/09 05:27:26;;;;;;;9.75;2.40;;;;;;;6.11;90.46;99222.38;5094581;28;20056;-52
2023/01/09 05:29:53;;;;;;;12.07;1.83;;;;;;;6.14;89.68;99212.34;5090061;28;20055;-52
2023/01/09 05:32:19;;;;;;;6.30;1.55;;;;;;;6.20;89.87;99213.50;5094879;28;20485;-52
2023/01/09 05:34:46;;;;;;;9.15;1.73;;;;;;;6.14;90.67;99222.06;5089657;28;20048;-51
2023/01/09 05:37:13;;;;;;;10.48;1.77;;;;;;;6.31;90.00;99215.00;5094082;28;20447;-51
2023/01/09 05:39:39;;;;;;;5.68;1.40;;;;;;;6.41;89.15;99217.47;5086609;28;20115;-52
2023/01/09 05:42:06;;;;;;;8.75;1.70;;;;;;;6.36;90.80;99219.78;5094684;28;20485;-52
2023/01/09 05:44:32;;;;;;;10.60;1.88;;;;;;;6.45;89.22;99216.97;5089882;28;20040;-52
2023/01/09 05:46:59;;;;;;;8.45;1.75;;;;;;;6.44;89.26;99225.03;5093938;28;20048;-52
2023/01/09 05:49:28;;;;;;;10.05;1.80;;;;;;;6.41;89.76;99226.19;5089665;28;20109;-52
2023/01/09 05:51:54;;;;;;;10.93;2.08;;;;;;;6.45;90.10;99226.69;5094183;28;20048;-52
2023/01/09 05:54:21;;;;;;;12.70;1.70;;;;;;;6.38;91.47;99221.25;5091738;28;20048;-51
2023/01/09 05:56:49;;;;;;;12.35;1.65;;;;;;;6.43;90.19;99229.50;5092551;28;20044;-52
2023/01/09 05:59:15;;;;;;;8.63;1.90;;;;;;;6.49;90.65;99225.38;5092560;28;20378;-52
2023/01/09 06:01:42;;;;;;;9.25;1.90;;;;;;;6.46;91.39;99223.09;5091549;28;20047;-53
2023/01/09 06:04:08;;;;;;;7.70;1.63;;;;;;;6.65;88.81;99229.81;5093873;28;20118;-52
2023/01/09 06:06:35;;;;;;;14.20;1.90;;;;;;;6.54;89.78;99230.97;5089651;28;20439;-53
2023/01/09 06:09:02;;;;;;;9.88;1.80;;;;;;;6.54;89.15;99226.53;5092117;28;20047;-53
2023/01/09 06:11:29;;;;;;;12.05;2.05;;;;;;;6.55;89.92;99227.38;5090891;28;20044;-52
2023/01/09 06:13:55;;;;;;;8.00;1.90;;;;;;;6.55;89.53;99235.28;5080588;28;20093;-51
2023/01/09 06:16:22;;;;;;;8.90;1.80;;;;;;;6.64;87.71;99233.44;5069058;28;20097;-52
2023/01/09 06:18:49;;;;;;;6.57;2.15;;;;;;;6.66;89.85;99224.38;5072692;28;20513;-53
2023/01/09 06:21:16;;;;;;;11.27;2.42;;;;;;;6.66;89.52;99228.84;5068372;28;20129;-53
2023/01/09 06:23:43;;;;;;;13.68;3.45;;;;;;;6.59;90.07;99233.13;5073228;28;20049;-51
2023/01/09 06:26:10;;;;;;;12.63;2.40;;;;;;;6.61;89.02;99221.41;5068554;28;20040;-51
2023/01/09 06:28:37;;;;;;;15.13;2.00;;;;;;;6.67;89.00;99227.84;5072932;28;20062;-52
2023/01/09 06:31:04;;;;;;;9.45;1.90;;;;;;;6.69;88.83;99223.22;5068766;28;20072;-52
2023/01/09 06:33:31;;;;;;;10.88;2.40;;;;;;;6.66;88.07;99234.94;5072975;28;20048;-51
2023/01/09 06:35:57;;;;;;;6.80;1.80;;;;;;;6.62;87.70;99228.34;5067007;28;20453;-53
2023/01/09 06:38:24;;;;;;;6.50;1.80;;;;;;;6.65;89.80;99232.47;5072758;28;20082;-52
2023/01/09 06:40:51;;;;;;;17.23;2.28;;;;;;;6.68;88.50;99230.31;5065103;28;20102;-52
2023/01/09 06:43:17;;;;;;;10.77;2.60;;;;;;;6.76;87.71;99233.94;5073451;28;20075;-53
2023/01/09 06:45:44;;;;;;;11.63;1.88;;;;;;;6.77;87.93;99232.94;5089014;28;20047;-52
2023/01/09 06:48:11;;;;;;;21.50;6.60;;;;;;;6.80;89.06;99230.78;5092524;28;20528;-53
2023/01/09 06:50:38;;;;;;;13.10;2.40;;;;;;;6.82;88.42;99239.38;5081774;28;20045;-53
2023/01/09 06:53:05;;;;;;;12.00;1.90;;;;;;;6.89;86.96;99242.16;5071261;28;20045;-52
2023/01/09 06:55:31;;;;;;;12.50;2.10;;;;;;;6.98;88.08;99246.41;5070232;28;20052;-52
2023/01/09 06:57:59;;;;;;;9.65;2.05;;;;;;;6.88;88.28;99237.88;5071542;28;20047;-52
2023/01/09 07:00:26;;;;;;;18.38;3.47;;;;;;;6.82;88.50;99235.91;5071000;28;20035;-51
2023/01/09 07:02:52;;;;;;;10.25;2.50;;;;;;;6.99;86.91;99234.91;5070449;28;20532;-52
2023/01/09 07:05:19;;;;;;;17.67;2.95;;;;;;;6.91;86.74;99227.81;5072283;28;20059;-52
2023/01/09 07:07:46;;;;;;;11.52;2.88;;;;;;;6.87;86.76;99231.75;5076060;28;20051;-49
2023/01/09 07:10:13;;;;;;;12.20;3.08;;;;;;;6.88;87.48;99229.97;5092864;28;20040;-52
2023/01/09 07:12:40;;;;;;;11.50;2.45;;;;;;;6.95;86.81;99224.84;5088650;28;20040;-51
2023/01/09 07:15:07;;;;;;;11.45;3.00;;;;;;;6.91;88.77;99225.19;5093029;28;20516;-53
2023/01/09 07:17:34;;;;;;;13.35;2.95;;;;;;;6.95;88.00;99232.75;5088772;28;20084;-52
2023/01/09 07:20:01;;;;;;;10.20;2.63;;;;;;;6.90;88.35;99234.06;5092953;28;20039;-52
2023/01/09 07:22:27;;;;;;;12.20;2.85;;;;;;;6.95;87.51;99232.75;5086901;28;20082;-52
2023/01/09 07:24:54;;;;;;;12.75;2.60;;;;;;;7.00;87.57;99235.72;5093227;28;20044;-53
2023/01/09 07:27:22;;;;;;;18.02;2.92;;;;;;;6.94;87.43;99233.75;5088420;28;20040;-51
2023/01/09 07:29:50;;;;;;;16.77;2.60;;;;;;;7.01;88.23;99229.47;5092778;28;20505;-50
2023/01/09 07:32:16;;;;;;;11.13;2.90;;;;;;;7.08;87.15;99235.72;5088395;28;20055;-50
2023/01/09 07:34:43;;;;;;;12.25;2.97;;;;;;;7.08;87.44;99241.78;5093183;28;20078;-52
2023/01/09 07:37:10;;;;;;;14.50;2.90;;;;;;;7.04;88.05;99242.28;5092245;28;20047;-51
2023/01/09 07:39:36;;;;;;;13.73;2.83;;;;;;;7.01;88.09;99248.72;5096740;28;20117;-52
2023/01/09 07:42:03;;;;;;;17.83;2.88;;;;;;;7.10;88.72;99239.81;5092315;28;20040;-52
2023/01/09 07:44:29;;;;;;;12.10;2.83;;;;;;;7.20;88.17;99246.72;5096681;28;20094;-53
2023/01/09 07:46:56;;;;;;;9.70;2.85;;;;;;;7.13;88.07;99253.66;5091950;28;20067;-52
2023/01/09 07:49:23;;;;;;;11.70;3.70;;;;;;;7.11;88.46;99249.38;5096282;28;20489;-51
2023/01/09 07:51:53;;;;;;;12.90;2.88;;;;;;;7.11;88.47;99252.03;5091656;28;20036;-52
2023/01/09 07:54:20;;;;;;;16.70;2.97;;;;;;;7.11;88.90;99252.03;5060595;28;20129;-52
2023/01/09 07:56:47;;;;;;;15.77;3.20;;;;;;;7.18;88.58;99253.97;5085965;28;20065;-49
2023/01/09 07:59:15;;;;;;;17.75;2.63;;;;;;;7.17;88.05;99254.94;5102191;28;20388;-53
2023/01/09 08:01:41;;;;;;;10.10;2.67;;;;;;;7.03;87.54;99259.13;5082320;28;20051;-52
2023/01/09 08:04:08;;;;;;;11.25;3.13;;;;;;;7.07;86.87;99263.06;5103677;28;20556;-51
2023/01/09 08:06:35;;;;;;;10.60;2.95;;;;;;;7.05;88.55;99262.41;5077403;28;20441;-52
2023/01/09 08:09:02;;;;;;;10.38;2.63;;;;;;;7.05;88.55;99257.94;5104066;28;20054;-52
2023/01/09 08:11:29;;;;;;;11.43;2.63;;;;;;;7.17;86.43;99279.53;5082937;28;20052;-52
2023/01/09 08:13:55;;;;;;;13.82;2.45;;;;;;;7.08;88.67;99270.00;5105753;28;20048;-51
2023/01/09 08:16:22;;;;;;;49.58;18.23;;;;;;;7.21;88.17;99259.72;5071729;28;20051;-52
2023/01/09 08:18:49;;;;;;;12.43;2.72;;;;;;;7.18;86.59;99265.34;5103772;28;20055;-51
2023/01/09 08:21:15;;;;;;;10.85;2.00;;;;;;;7.22;86.68;99271.09;5090742;28;20044;-54
2023/01/09 08:23:44;;;;;;;11.52;2.30;;;;;;;7.21;84.81;99272.09;5096792;28;20055;-55
2023/01/09 08:26:11;;;;;;;10.43;2.25;;;;;;;7.42;83.29;99282.09;5075045;28;20048;-56
2023/01/09 08:28:37;;;;;;;10.20;2.40;;;;;;;7.34;83.85;99277.66;5104214;28;20048;-55
2023/01/09 08:31:04;;;;;;;13.02;2.53;;;;;;;7.47;82.83;99277.94;5075454;28;20040;-55
2023/01/09 08:33:31;;;;;;;15.82;2.70;;;;;;;7.50;82.75;99274.16;5081155;28;20123;-55
2023/01/09 08:35:58;;;;;;;11.05;2.33;;;;;;;7.49;83.52;99281.28;5069502;28;20432;-55
2023/01/09 08:38:25;;;;;;;16.02;2.03;;;;;;;7.47;83.16;99293.78;5095825;28;20139;-55
2023/01/09 08:40:52;;;;;;;13.90;2.13;;;;;;;7.56;81.81;99283.22;5073262;28;20051;-55
2023/01/09 08:49:00;;;;;;;14.20;2.30;;;;;;;7.62;81.09;99293.94;5093987;28;20056;-55
2023/01/09 08:51:27;;;;;;;11.07;2.20;;;;;;;7.59;82.62;99309.28;5075352;28;20047;-54
2023/01/09 08:53:53;;;;;;;12.05;2.00;;;;;;;7.66;80.66;99297.06;5087966;28;20048;-55
2023/01/09 08:56:20;;;;;;;20.13;2.60;;;;;;;7.63;81.11;99307.94;5060723;28;20045;-54
2023/01/09 08:58:46;;;;;;;12.27;1.83;;;;;;;7.55;81.98;99303.53;5089614;28;20147;-52
2023/01/09 09:01:14;;;;;;;11.70;2.47;;;;;;;7.61;80.98;99316.03;5071557;28;20127;-54
2023/01/09 09:03:40;;;;;;;17.13;2.15;;;;;;;7.70;81.10;99314.19;5073306;28;20592;-55
2023/01/09 09:06:07;;;;;;;14.73;2.40;;;;;;;7.68;81.71;99338.09;5072729;28;20044;-54
2023/01/09 09:08:34;;;;;;;9.75;1.98;;;;;;;7.77;80.21;99320.44;5085901;28;20418;-54
2023/01/09 09:11:00;;;;;;;13.18;1.75;;;;;;;7.69;81.31;99321.28;5081274;28;20047;-54
2023/01/09 09:13:27;;;;;;;10.65;2.00;;;;;;;7.67;81.76;99325.88;5089067;28;20059;-53
2023/01/09 09:15:54;;;;;;;9.63;2.03;;;;;;;7.74;81.98;99327.88;5073824;28;24332;-55
2023/01/09 09:18:20;;;;;;;8.63;2.05;;;;;;;7.69;81.16;99326.56;5080563;28;20086;-55
2023/01/09 09:20:47;;;;;;;12.35;2.20;;;;;;;7.69;81.64;99331.84;5076718;28;20744;-55
2023/01/09 09:23:14;;;;;;;8.10;1.85;;;;;;;7.72;81.37;99330.69;5086880;28;20040;-53
2023/01/09 09:25:40;;;;;;;8.40;1.80;;;;;;;7.72;81.28;99335.13;5070109;28;22591;-55
2023/01/09 09:28:08;;;;;;;11.32;2.10;;;;;;;7.75;81.74;99327.69;5083884;28;20046;-55
2023/01/09 09:30:37;;;;;;;10.43;2.00;;;;;;;7.68;82.02;99317.00;5071334;28;20063;-54
2023/01/09 09:33:04;;;;;;;9.40;1.80;;;;;;;7.78;81.87;99337.09;5093591;28;20064;-55
2023/01/09 09:35:32;;;;;;;7.03;1.92;;;;;;;7.79;82.17;99344.84;5079587;28;20546;-54
2023/01/09 09:38:01;;;;;;;12.95;3.25;;;;;;;7.92;83.39;99343.50;5076582;28;21296;-53
2023/01/09 09:40:59;;;;;;;18.67;3.90;;;;;;;8.05;80.85;99365.69;5085215;28;20040;-53
2023/01/09 09:47:00;;;;;;;11.20;2.03;;;;;;;8.19;81.36;99374.72;5072753;28;20127;-53
2023/01/09 09:49:38;;;;;;;8.77;2.08;;;;;;;8.20;81.33;99371.06;5081005;28;20501;-53
2023/01/09 09:52:18;;;;;;;15.77;1.90;;;;;;;8.25;80.80;99375.84;5075044;28;20549;-55
2023/01/09 09:54:50;;;;;;;5.13;1.35;;;;;;;8.29;81.05;99387.72;5096937;28;20386;-54
2023/01/09 09:57:22;;;;;;;9.68;1.50;;;;;;;8.24;80.66;99395.34;5065321;28;20130;-55
2023/01/09 09:59:50;;;;;;;8.82;1.80;;;;;;;8.20;80.89;99383.47;5090703;28;20040;-55
2023/01/09 10:05:04;;;;;;;13.35;2.45;;;;;;;8.24;80.92;99397.97;5085013;27;20381;-55
2023/01/09 10:07:40;;;;;;;7.55;1.60;;;;;;;8.20;81.01;99400.13;5045322;28;20041;-53
2023/01/09 10:10:21;;;;;;;9.43;2.00;;;;;;;8.20;81.09;99408.06;5064947;28;20047;-54
2023/01/09 10:12:58;;;;;;;11.15;1.60;;;;;;;8.15;81.22;99399.00;5059563;28;20059;-56
2023/01/09 10:15:35;;;;;;;10.23;1.80;;;;;;;8.01;81.46;99408.47;5067115;28;20051;-56
2023/01/09 10:20:58;;;;;;;8.10;2.22;;;;;;;7.94;81.38;99403.03;5065465;28;20375;-54
2023/01/09 10:23:54;;;;;;;10.82;1.73;;;;;;;7.92;81.34;99398.94;5014025;28;20041;-55
2023/01/09 10:26:29;;;;;;;9.23;1.83;;;;;;;7.93;81.03;99411.13;5052389;28;20090;-55
2023/01/09 10:29:20;;;;;;;9.00;1.90;;;;;;;7.95;82.25;99415.28;5064404;28;20505;-56
2023/01/09 10:32:07;;;;;;;9.95;1.92;;;;;;;7.93;82.47;99417.25;5036377;28;20045;-55
2023/01/09 10:34:50;;;;;;;8.30;2.30;;;;;;;7.98;82.82;99417.56;5041683;28;20142;-56
2023/01/09 10:37:23;;;;;;;13.20;1.85;;;;;;;7.93;81.36;99408.50;5037719;28;20033;-55
2023/01/09 10:40:01;;;;;;;9.88;2.03;;;;;;;7.93;81.38;99413.78;5069214;28;20055;-55
2023/01/09 10:42:43;;;;;;;9.90;1.83;;;;;;;7.96;82.12;99414.25;5029606;28;20052;-55
2023/01/09 10:45:21;;;;;;;14.43;2.53;;;;;;;7.90;81.92;99409.66;5063574;28;20048;-55
2023/01/09 10:47:48;;;;;;;14.75;2.03;;;;;;;7.82;81.46;99410.50;5047220;28;20045;-55
2023/01/09 10:50:25;;;;;;;6.60;1.58;;;;;;;7.85;82.01;99417.25;5066015;28;20048;-55
2023/01/09 10:52:55;;;;;;;9.52;1.95;;;;;;;7.86;83.11;99416.28;5031091;28;20056;-54
2023/01/09 10:55:38;;;;;;;11.90;2.35;;;;;;;7.88;82.82;99412.47;5065706;28;20052;-55
2023/01/09 10:58:15;;;;;;;12.20;2.20;;;;;;;7.94;82.34;99410.16;5036354;28;20738;-55
2023/01/09 11:00:43;;;;;;;8.43;1.80;;;;;;;7.95;81.96;99427.63;5063878;28;20491;-55
2023/01/09 11:03:12;;;;;;;8.93;2.08;;;;;;;7.94;81.44;99423.34;5044506;28;20115;-55
2023/01/09 11:05:39;;;;;;;8.80;2.10;;;;;;;7.86;82.26;99419.75;5063577;28;20048;-55
2023/01/09 11:08:18;;;;;;;6.25;1.73;;;;;;;7.86;81.17;99422.38;5029543;28;20052;-55
2023/01/09 11:10:52;;;;;;;4.90;1.65;;;;;;;7.92;81.89;99418.25;5062419;28;20070;-55
2023/01/09 11:13:30;;;;;;;7.40;2.00;;;;;;;7.95;82.13;99420.56;5052079;28;20162;-55
2023/01/09 11:16:06;;;;;;;8.15;1.83;;;;;;;8.00;81.50;99420.03;5066998;28;20417;-58
2023/01/09 11:18:36;;;;;;;8.10;2.05;;;;;;;8.05;81.59;99423.81;5061218;28;20052;-55
2023/01/09 11:21:13;;;;;;;8.63;1.85;;;;;;;8.10;80.65;99423.31;5046902;28;20028;-55
2023/01/09 11:23:40;;;;;;;5.20;1.58;;;;;;;8.16;81.09;99424.44;5062190;28;20040;-55
2023/01/09 11:26:21;;;;;;;8.23;2.10;;;;;;;8.28;80.12;99423.09;5041364;28;21117;-56
2023/01/09 11:29:10;;;;;;;12.75;1.92;;;;;;;8.36;79.33;99428.31;5059635;28;20251;-55
2023/01/09 11:31:39;;;;;;;10.18;2.00;;;;;;;8.39;79.70;99425.34;5055149;28;20056;-55
2023/01/09 11:34:18;;;;;;;7.90;1.77;;;;;;;8.33;79.35;99423.41;5043344;28;20045;-55
2023/01/09 11:36:45;;;;;;;11.45;2.10;;;;;;;8.41;78.88;99439.19;5047357;28;20056;-55
2023/01/09 11:39:30;;;;;;;7.53;1.90;;;;;;;8.33;78.67;99430.47;5048962;28;20140;-55
2023/01/09 11:42:01;;;;;;;8.30;1.70;;;;;;;8.19;79.00;99432.84;5066089;28;20444;-55
2023/01/09 11:44:30;;;;;;;10.13;1.90;;;;;;;8.22;79.50;99436.97;5028908;28;20046;-57
2023/01/09 11:46:57;;;;;;;5.07;1.73;;;;;;;8.18;79.61;99440.94;5052230;28;20657;-57
2023/01/09 11:49:27;;;;;;;11.75;2.17;;;;;;;8.27;79.35;99445.19;5039987;28;20047;-57
2023/01/09 11:52:20;;;;;;;7.45;1.80;;;;;;;8.20;78.61;99452.97;5033954;28;20057;-55
2023/01/09 11:54:59;;;;;;;9.23;2.20;;;;;;;8.13;79.45;99448.53;5034455;28;20052;-57
2023/01/09 11:57:26;;;;;;;10.55;2.33;;;;;;;8.08;80.17;99457.81;5046045;28;20049;-55
2023/01/09 12:00:03;;;;;;;6.35;1.85;;;;;;;8.02;79.60;99457.66;5033630;28;20118;-56
2023/01/09 12:03:14;;;;;;;4.65;1.67;;;;;;;8.01;78.64;99469.22;5104087;27;20406;-55
2023/01/09 12:05:57;;;;;;;7.65;1.70;;;;;;;7.99;79.47;99461.47;5083911;28;20578;-56
2023/01/09 12:08:37;;;;;;;7.20;1.52;;;;;;;7.96;79.27;99475.00;5089675;28;20068;-56
2023/01/09 12:11:28;;;;;;;9.07;2.00;;;;;;;7.95;79.75;99480.44;5082713;28;20043;-56
2023/01/09 12:16:53;;;;;;;7.30;1.70;;;;;;;7.81;79.20;99471.41;5107864;27;20378;-56
2023/01/09 12:19:46;;;;;;;7.13;1.85;;;;;;;7.71;79.37;99492.69;5119482;27;20044;-55
2023/01/09 12:22:39;;;;;;;8.85;1.90;;;;;;;7.73;79.27;99496.00;5105211;28;20044;-55